createdAt,value
2017-06-14T00:00:45.526Z,46.2
2017-06-14T00:01:46.223Z,45.2
2017-06-14T00:02:46.974Z,43.9
2017-06-14T00:03:48.022Z,43.9
2017-06-14T00:04:48.694Z,44.0
2017-06-14T00:05:49.374Z,43.9
2017-06-14T00:06:50.082Z,44.3
2017-06-14T00:07:50.768Z,43.8
2017-06-14T00:08:51.653Z,43.8
2017-06-14T00:09:52.650Z,44.6
2017-06-14T00:10:53.377Z,44.3
2017-06-14T00:11:54.130Z,44.3
2017-06-14T00:12:54.814Z,46.7
2017-06-14T00:13:55.676Z,47.9
2017-06-14T00:14:56.349Z,48.0
2017-06-14T00:15:57.076Z,47.9
2017-06-14T00:16:58.044Z,47.2
2017-06-14T00:17:58.741Z,46.7
2017-06-14T00:18:59.501Z,46.2
2017-06-14T00:20:00.190Z,46.2
2017-06-14T00:21:00.869Z,45.9
2017-06-14T00:22:01.553Z,46.1
2017-06-14T00:23:02.691Z,45.7
2017-06-14T00:24:03.443Z,45.6
2017-06-14T00:25:04.147Z,45.3
2017-06-14T00:26:04.872Z,44.8
2017-06-14T00:27:05.564Z,45.1
2017-06-14T00:28:06.409Z,44.9
2017-06-14T00:29:07.453Z,44.6
2017-06-14T00:30:08.145Z,44.8
2017-06-14T00:31:08.824Z,44.6
2017-06-14T00:32:09.531Z,44.9
2017-06-14T00:33:10.272Z,44.4
2017-06-14T00:34:10.962Z,44.5
2017-06-14T00:35:11.998Z,44.5
2017-06-14T00:36:12.692Z,43.8
2017-06-14T00:37:13.390Z,44.0
2017-06-14T00:38:14.189Z,43.9
2017-06-14T00:39:14.877Z,43.6
2017-06-14T00:40:15.577Z,43.6
2017-06-14T00:41:16.558Z,43.3
2017-06-14T00:42:17.250Z,43.3
2017-06-14T00:43:18.093Z,43.2
2017-06-14T00:44:18.785Z,43.0
2017-06-14T00:45:19.532Z,43.2
2017-06-14T00:46:20.216Z,43.1
2017-06-14T00:47:20.899Z,43.1
2017-06-14T00:48:21.962Z,43.2
2017-06-14T00:49:22.653Z,43.1
2017-06-14T00:50:23.340Z,43.2
2017-06-14T00:51:24.039Z,43.5
2017-06-14T00:52:24.718Z,43.5
2017-06-14T00:53:25.472Z,43.4
2017-06-14T00:54:26.450Z,42.9
2017-06-14T00:55:27.144Z,42.9
2017-06-14T00:56:27.841Z,43.0
2017-06-14T00:57:28.536Z,42.7
2017-06-14T00:58:29.359Z,42.8
2017-06-14T00:59:30.046Z,43.1
2017-06-14T01:00:31.046Z,42.7
2017-06-14T01:01:31.745Z,42.7
2017-06-14T01:02:32.437Z,42.4
2017-06-14T01:03:33.221Z,42.4
2017-06-14T01:04:33.917Z,42.5
2017-06-14T01:05:34.928Z,42.4
2017-06-14T01:06:35.899Z,42.4
2017-06-14T01:07:36.647Z,42.4
2017-06-14T01:08:37.528Z,42.7
2017-06-14T01:09:38.236Z,42.3
2017-06-14T01:10:38.910Z,42.0
2017-06-14T01:11:39.608Z,42.2
2017-06-14T01:12:40.601Z,42.3
2017-06-14T01:13:41.382Z,42.0
2017-06-14T01:14:42.085Z,42.3
2017-06-14T01:15:42.820Z,42.1
2017-06-14T01:16:43.517Z,42.0
2017-06-14T01:17:44.189Z,42.0
2017-06-14T01:18:45.401Z,42.4
2017-06-14T01:19:46.094Z,42.1
2017-06-14T01:20:46.758Z,42.4
2017-06-14T01:21:47.479Z,41.8
2017-06-14T01:22:48.152Z,41.3
2017-06-14T01:23:48.963Z,41.5
2017-06-14T01:24:49.935Z,41.8
2017-06-14T01:25:50.637Z,41.6
2017-06-14T01:26:51.333Z,41.3
2017-06-14T01:27:52.047Z,41.2
2017-06-14T01:28:53.023Z,41.2
2017-06-14T01:29:53.750Z,42.2
2017-06-14T01:30:54.416Z,41.9
2017-06-14T01:31:55.417Z,41.9
2017-06-14T01:32:56.094Z,42.2
2017-06-14T01:33:56.953Z,41.9
2017-06-14T01:34:57.851Z,42.0
2017-06-14T01:35:58.528Z,41.6
2017-06-14T01:36:59.274Z,41.8
2017-06-14T01:38:00.251Z,41.3
2017-06-14T01:39:01.064Z,41.8
2017-06-14T01:40:01.811Z,41.8
2017-06-14T01:41:02.563Z,41.8
2017-06-14T01:42:03.458Z,42.0
2017-06-14T01:43:04.147Z,42.2
2017-06-14T01:44:05.123Z,41.8
2017-06-14T01:45:05.877Z,42.0
2017-06-14T01:46:06.592Z,41.9
2017-06-14T01:47:07.407Z,41.8
2017-06-14T01:48:08.118Z,42.1
2017-06-14T01:49:08.788Z,41.9
2017-06-14T01:50:09.803Z,42.0
2017-06-14T01:51:10.466Z,41.9
2017-06-14T01:52:11.365Z,42.0
2017-06-14T01:53:12.055Z,41.9
2017-06-14T01:54:12.746Z,41.8
2017-06-14T01:55:13.451Z,42.3
2017-06-14T01:56:14.449Z,41.9
2017-06-14T01:57:15.183Z,42.2
2017-06-14T01:58:15.858Z,42.6
2017-06-14T01:59:16.704Z,42.0
2017-06-14T02:00:17.408Z,41.9
2017-06-14T02:01:18.084Z,42.0
2017-06-14T02:02:19.062Z,41.8
2017-06-14T02:03:19.769Z,41.8
2017-06-14T02:04:20.668Z,41.8
2017-06-14T02:05:21.344Z,42.6
2017-06-14T02:06:22.037Z,41.7
2017-06-14T02:07:22.732Z,41.8
2017-06-14T02:08:23.720Z,41.8
2017-06-14T02:09:24.561Z,42.9
2017-06-14T02:10:25.258Z,42.2
2017-06-14T02:11:25.946Z,42.6
2017-06-14T02:12:26.655Z,41.8
2017-06-14T02:13:27.354Z,42.2
2017-06-14T02:14:28.372Z,41.9
2017-06-14T02:15:29.091Z,42.0
2017-06-14T02:16:30.173Z,42.0
2017-06-14T02:17:30.921Z,42.1
2017-06-14T02:18:31.616Z,42.2
2017-06-14T02:19:32.309Z,42.4
2017-06-14T02:20:33.292Z,42.1
2017-06-14T02:21:34.293Z,42.9
2017-06-14T02:22:34.975Z,42.4
2017-06-14T02:23:35.665Z,42.1
2017-06-14T02:24:37.232Z,41.8
2017-06-14T02:25:38.772Z,42.8
2017-06-14T02:26:39.831Z,42.8
2017-06-14T02:27:40.516Z,42.9
2017-06-14T02:28:41.188Z,42.6
2017-06-14T02:29:41.879Z,42.1
2017-06-14T02:30:42.575Z,42.3
2017-06-14T02:31:43.325Z,42.5
2017-06-14T02:32:44.302Z,42.9
2017-06-14T02:33:45.042Z,42.6
2017-06-14T02:34:45.780Z,43.1
2017-06-14T02:35:46.469Z,43.5
2017-06-14T02:36:47.215Z,43.3
2017-06-14T02:37:47.898Z,43.1
2017-06-14T02:38:48.928Z,43.2
2017-06-14T02:39:49.655Z,43.8
2017-06-14T02:40:50.321Z,43.5
2017-06-14T02:41:51.005Z,43.4
2017-06-14T02:42:51.709Z,43.1
2017-06-14T02:43:52.444Z,42.4
2017-06-14T02:44:53.441Z,42.0
2017-06-14T02:45:54.130Z,42.5
2017-06-14T02:46:54.805Z,42.2
2017-06-14T02:47:55.506Z,42.1
2017-06-14T02:48:56.236Z,42.3
2017-06-14T02:49:56.941Z,42.8
2017-06-14T02:50:57.948Z,42.3
2017-06-14T02:51:58.609Z,42.8
2017-06-14T02:52:59.336Z,43.0
2017-06-14T02:54:00.161Z,43.0
2017-06-14T02:55:00.828Z,42.6
2017-06-14T02:56:01.518Z,43.0
2017-06-14T02:57:02.538Z,43.0
2017-06-14T02:58:03.204Z,42.9
2017-06-14T02:59:03.987Z,42.9
2017-06-14T03:00:04.669Z,43.0
2017-06-14T03:01:05.662Z,43.3
2017-06-14T03:02:06.355Z,43.1
2017-06-14T03:03:07.388Z,43.3
2017-06-14T03:05:23.676Z,43.2
2017-06-14T03:06:24.373Z,43.1
2017-06-14T03:07:25.059Z,43.5
2017-06-14T03:08:25.750Z,43.3
2017-06-14T03:09:26.784Z,43.3
2017-06-14T03:10:27.537Z,43.6
2017-06-14T03:11:28.239Z,43.5
2017-06-14T03:12:28.949Z,43.3
2017-06-14T03:13:29.663Z,43.8
2017-06-14T03:14:30.337Z,43.8
2017-06-14T03:15:31.372Z,43.8
2017-06-14T03:16:32.121Z,43.0
2017-06-14T03:17:32.793Z,43.0
2017-06-14T03:18:33.503Z,43.4
2017-06-14T03:19:34.182Z,43.3
2017-06-14T03:20:34.971Z,42.9
2017-06-14T03:21:35.659Z,43.5
2017-06-14T03:22:36.655Z,43.0
2017-06-14T03:23:37.346Z,42.7
2017-06-14T03:24:38.035Z,43.5
2017-06-14T03:25:38.881Z,43.5
2017-06-14T03:26:39.601Z,43.1
2017-06-14T03:27:40.347Z,42.9
2017-06-14T03:28:41.301Z,43.2
2017-06-14T03:29:41.986Z,43.1
2017-06-14T03:30:42.728Z,42.9
2017-06-14T03:31:43.468Z,43.1
2017-06-14T03:32:44.158Z,43.0
2017-06-14T03:33:44.866Z,43.3
2017-06-14T03:34:45.847Z,43.6
2017-06-14T03:35:46.634Z,43.2
2017-06-14T03:36:47.329Z,43.0
2017-06-14T03:37:48.009Z,43.3
2017-06-14T03:38:48.704Z,43.3
2017-06-14T03:39:49.408Z,43.4
2017-06-14T03:40:50.555Z,43.2
2017-06-14T03:41:51.230Z,43.1
2017-06-14T03:42:51.914Z,43.0
2017-06-14T03:43:52.677Z,43.2
2017-06-14T03:44:53.357Z,43.1
2017-06-14T03:45:54.159Z,43.4
2017-06-14T03:46:55.208Z,43.0
2017-06-14T03:47:55.887Z,43.7
2017-06-14T03:48:56.566Z,43.2
2017-06-14T03:49:57.262Z,43.0
2017-06-14T03:50:57.974Z,42.9
2017-06-14T03:51:58.696Z,43.1
2017-06-14T03:52:59.696Z,43.1
2017-06-14T03:54:00.390Z,42.9
2017-06-14T03:55:01.082Z,43.3
2017-06-14T03:56:01.769Z,43.1
2017-06-14T03:57:02.725Z,43.4
2017-06-14T03:58:03.408Z,43.6
2017-06-14T03:59:04.467Z,43.0
2017-06-14T04:00:05.161Z,43.5
2017-06-14T04:01:05.846Z,43.2
2017-06-14T04:02:06.590Z,43.5
2017-06-14T04:03:07.361Z,43.2
2017-06-14T04:04:08.018Z,43.3
2017-06-14T04:05:09.010Z,43.1
2017-06-14T04:06:09.699Z,43.0
2017-06-14T04:07:10.587Z,43.7
2017-06-14T04:08:11.329Z,43.1
2017-06-14T04:09:12.079Z,43.6
2017-06-14T04:10:12.770Z,43.2
2017-06-14T04:11:13.755Z,43.2
2017-06-14T04:12:14.548Z,43.7
2017-06-14T04:13:15.384Z,43.2
2017-06-14T04:14:16.081Z,43.3
2017-06-14T04:15:16.769Z,43.4
2017-06-14T04:16:17.469Z,43.9
2017-06-14T04:17:18.463Z,43.7
2017-06-14T04:18:19.208Z,43.7
2017-06-14T04:19:19.897Z,43.8
2017-06-14T04:20:20.593Z,43.0
2017-06-14T04:21:21.289Z,43.5
2017-06-14T04:22:21.969Z,43.2
2017-06-14T04:23:23.038Z,43.6
2017-06-14T04:24:23.693Z,43.3
2017-06-14T04:25:24.383Z,43.3
2017-06-14T04:26:25.133Z,43.4
2017-06-14T04:27:25.837Z,43.3
2017-06-14T04:28:26.566Z,43.7
2017-06-14T04:29:27.612Z,43.5
2017-06-14T04:30:28.303Z,43.7
2017-06-14T04:31:28.999Z,43.3
2017-06-14T04:32:29.739Z,43.3
2017-06-14T04:33:30.500Z,43.4
2017-06-14T04:34:31.184Z,43.4
2017-06-14T04:35:31.863Z,43.4
2017-06-14T04:36:32.875Z,43.7
2017-06-14T04:37:33.544Z,43.6
2017-06-14T04:38:34.341Z,43.4
2017-06-14T04:39:35.022Z,43.8
2017-06-14T04:40:35.714Z,43.8
2017-06-14T04:41:36.432Z,43.7
2017-06-14T04:42:37.411Z,43.5
2017-06-14T04:43:38.321Z,43.6
2017-06-14T04:44:39.002Z,43.7
2017-06-14T04:45:39.742Z,43.3
2017-06-14T04:46:40.454Z,43.5
2017-06-14T04:47:41.137Z,43.4
2017-06-14T04:48:42.114Z,43.5
2017-06-14T04:49:42.824Z,43.5
2017-06-14T04:50:43.720Z,43.5
2017-06-14T04:51:44.411Z,43.5
2017-06-14T04:52:45.094Z,44.0
2017-06-14T04:53:45.795Z,43.5
2017-06-14T04:54:46.785Z,43.5
2017-06-14T04:55:47.732Z,43.5
2017-06-14T04:56:48.499Z,43.8
2017-06-14T04:57:49.182Z,44.1
2017-06-14T04:58:49.866Z,43.8
2017-06-14T04:59:50.627Z,43.9
2017-06-14T05:00:51.716Z,43.8
2017-06-14T05:01:52.424Z,43.9
2017-06-14T05:02:53.094Z,44.0
2017-06-14T05:03:53.789Z,43.7
2017-06-14T05:04:54.493Z,44.2
2017-06-14T05:05:55.371Z,43.5
2017-06-14T05:06:56.069Z,43.7
2017-06-14T05:07:57.111Z,43.5
2017-06-14T05:08:57.793Z,43.5
2017-06-14T05:09:58.486Z,43.5
2017-06-14T05:10:59.347Z,43.8
2017-06-14T05:12:00.075Z,43.5
2017-06-14T05:13:00.798Z,43.6
2017-06-14T05:14:01.781Z,43.7
2017-06-14T05:15:02.496Z,43.7
2017-06-14T05:16:03.318Z,43.7
2017-06-14T05:17:04.012Z,43.5
2017-06-14T05:18:04.699Z,43.5
2017-06-14T05:19:05.388Z,43.5
2017-06-14T05:20:06.377Z,43.5
2017-06-14T05:21:07.189Z,43.3
2017-06-14T05:22:07.866Z,43.8
2017-06-14T05:23:08.552Z,43.9
2017-06-14T05:24:09.254Z,43.4
2017-06-14T05:25:09.971Z,43.2
2017-06-14T05:26:11.190Z,43.3
2017-06-14T05:27:11.889Z,43.3
2017-06-14T05:28:12.654Z,43.3
2017-06-14T05:29:13.352Z,43.4
2017-06-14T05:30:14.044Z,43.5
2017-06-14T05:31:14.941Z,43.0
2017-06-14T05:32:15.975Z,43.5
2017-06-14T05:33:16.748Z,43.2
2017-06-14T05:34:17.439Z,43.3
2017-06-14T05:35:18.130Z,43.4
2017-06-14T05:36:18.872Z,43.1
2017-06-14T05:37:19.952Z,43.2
2017-06-14T05:38:20.909Z,43.1
2017-06-14T05:39:21.604Z,43.5
2017-06-14T05:40:22.351Z,43.2
2017-06-14T05:41:23.039Z,43.0
2017-06-14T05:42:23.782Z,43.6
2017-06-14T05:43:24.922Z,43.9
2017-06-14T05:44:25.695Z,43.2
2017-06-14T05:45:26.382Z,43.8
2017-06-14T05:46:27.072Z,43.3
2017-06-14T05:47:27.781Z,43.3
2017-06-14T05:48:28.455Z,43.0
2017-06-14T05:49:29.299Z,43.3
2017-06-14T05:50:30.352Z,43.1
2017-06-14T05:51:31.055Z,43.1
2017-06-14T05:52:31.754Z,43.2
2017-06-14T05:53:32.455Z,42.9
2017-06-14T05:54:33.198Z,43.3
2017-06-14T05:55:33.883Z,43.0
2017-06-14T05:56:34.876Z,43.0
2017-06-14T05:57:35.566Z,43.1
2017-06-14T05:58:36.262Z,43.1
2017-06-14T05:59:37.112Z,42.9
2017-06-14T06:00:37.948Z,43.5
2017-06-14T06:01:38.692Z,42.9
2017-06-14T06:02:39.399Z,43.0
2017-06-14T06:03:40.095Z,42.8
2017-06-14T06:04:40.793Z,43.1
2017-06-14T06:05:41.492Z,42.8
2017-06-14T06:06:42.292Z,42.6
2017-06-14T06:07:43.275Z,42.6
2017-06-14T06:08:44.361Z,42.9
2017-06-14T06:09:45.033Z,42.4
2017-06-14T06:10:45.724Z,42.6
2017-06-14T06:11:46.464Z,42.4
2017-06-14T06:12:47.161Z,42.7
2017-06-14T06:13:48.147Z,42.4
2017-06-14T06:14:49.191Z,42.6
2017-06-14T06:15:49.884Z,42.3
2017-06-14T06:16:50.573Z,42.5
2017-06-14T06:17:51.325Z,42.6
2017-06-14T06:18:52.068Z,42.4
2017-06-14T06:19:52.782Z,41.9
2017-06-14T06:20:53.780Z,42.1
2017-06-14T06:21:54.474Z,42.8
2017-06-14T06:22:55.170Z,42.1
2017-06-14T06:23:55.864Z,42.2
2017-06-14T06:24:56.706Z,42.9
2017-06-14T06:25:57.393Z,42.2
2017-06-14T06:26:58.393Z,42.1
2017-06-14T06:27:59.091Z,41.9
2017-06-14T06:28:59.784Z,42.0
2017-06-14T06:30:00.563Z,41.8
2017-06-14T06:31:01.308Z,42.2
2017-06-14T06:32:02.000Z,42.3
2017-06-14T06:33:02.989Z,41.9
2017-06-14T06:34:03.677Z,41.8
2017-06-14T06:35:04.415Z,42.6
2017-06-14T06:36:05.108Z,42.0
2017-06-14T06:37:05.835Z,42.4
2017-06-14T06:38:06.506Z,41.9
2017-06-14T06:39:07.506Z,42.0
2017-06-14T06:40:08.339Z,42.1
2017-06-14T06:41:09.034Z,41.9
2017-06-14T06:42:09.742Z,42.2
2017-06-14T06:43:10.412Z,41.4
2017-06-14T06:44:11.432Z,41.5
2017-06-14T06:45:12.363Z,41.9
2017-06-14T06:46:13.056Z,42.0
2017-06-14T06:47:13.751Z,41.7
2017-06-14T06:48:14.559Z,41.9
2017-06-14T06:49:15.252Z,41.5
2017-06-14T06:51:31.950Z,41.8
2017-06-14T06:52:32.607Z,41.3
2017-06-14T06:53:33.360Z,41.4
2017-06-14T06:54:34.109Z,41.4
2017-06-14T06:55:34.858Z,41.6
2017-06-14T06:56:35.543Z,41.0
2017-06-14T06:57:36.233Z,41.2
2017-06-14T06:58:37.230Z,41.2
2017-06-14T06:59:38.015Z,41.4
2017-06-14T07:00:38.708Z,41.3
2017-06-14T07:01:39.458Z,41.3
2017-06-14T07:02:40.166Z,41.3
2017-06-14T07:03:40.847Z,41.3
2017-06-14T07:04:41.991Z,41.5
2017-06-14T07:05:42.761Z,41.1
2017-06-14T07:06:43.430Z,41.0
2017-06-14T07:07:44.135Z,41.2
2017-06-14T07:08:44.819Z,41.1
2017-06-14T07:09:45.638Z,40.8
2017-06-14T07:10:46.631Z,41.0
2017-06-14T07:11:47.461Z,40.9
2017-06-14T07:12:48.172Z,40.9
2017-06-14T07:13:48.858Z,41.2
2017-06-14T07:14:49.606Z,40.9
2017-06-14T07:15:50.290Z,40.9
2017-06-14T07:16:51.439Z,41.2
2017-06-14T07:17:52.151Z,40.7
2017-06-14T07:18:52.898Z,40.9
2017-06-14T07:19:53.584Z,40.7
2017-06-14T07:20:54.274Z,40.7
2017-06-14T07:21:55.292Z,40.9
2017-06-14T07:22:56.016Z,40.8
2017-06-14T07:23:56.710Z,40.9
2017-06-14T07:24:57.419Z,41.0
2017-06-14T07:25:58.170Z,41.0
2017-06-14T07:26:58.905Z,40.7
2017-06-14T07:27:59.756Z,40.7
2017-06-14T07:29:00.744Z,40.6
2017-06-14T07:30:01.436Z,40.6
2017-06-14T07:31:02.180Z,40.8
2017-06-14T07:32:02.871Z,40.7
2017-06-14T07:33:03.710Z,40.1
2017-06-14T07:34:04.371Z,40.6
2017-06-14T07:35:05.372Z,40.4
2017-06-14T07:36:06.057Z,40.4
2017-06-14T07:37:06.791Z,40.2
2017-06-14T07:38:07.535Z,40.1
2017-06-14T07:39:08.259Z,40.1
2017-06-14T07:40:08.949Z,40.1
2017-06-14T07:41:09.679Z,40.4
2017-06-14T07:42:10.692Z,40.1
2017-06-14T07:43:11.401Z,40.1
2017-06-14T07:44:12.116Z,40.0
2017-06-14T07:45:12.879Z,40.0
2017-06-14T07:46:13.590Z,39.9
2017-06-14T07:47:14.429Z,40.2
2017-06-14T07:48:15.438Z,40.1
2017-06-14T07:49:16.111Z,40.2
2017-06-14T07:50:16.822Z,39.9
2017-06-14T07:51:17.522Z,39.8
2017-06-14T07:52:18.281Z,40.1
2017-06-14T07:53:20.053Z,39.9
2017-06-14T07:54:21.046Z,39.9
2017-06-14T07:55:21.778Z,40.1
2017-06-14T07:56:22.478Z,39.7
2017-06-14T07:57:23.218Z,39.7
2017-06-14T07:58:23.968Z,39.6
2017-06-14T07:59:24.656Z,39.4
2017-06-14T08:00:25.366Z,39.6
2017-06-14T08:01:26.422Z,39.8
2017-06-14T08:02:27.172Z,39.5
2017-06-14T08:03:27.893Z,39.7
2017-06-14T08:04:28.603Z,39.5
2017-06-14T08:05:29.285Z,39.4
2017-06-14T08:06:30.279Z,39.7
2017-06-14T08:07:31.031Z,39.5
2017-06-14T08:08:31.830Z,39.5
2017-06-14T08:09:32.565Z,39.5
2017-06-14T08:10:33.320Z,39.1
2017-06-14T08:11:34.006Z,39.2
2017-06-14T08:12:34.991Z,39.3
2017-06-14T08:13:35.892Z,39.1
2017-06-14T08:14:36.582Z,39.1
2017-06-14T08:15:37.293Z,39.0
2017-06-14T08:16:37.994Z,38.7
2017-06-14T08:17:38.682Z,39.2
2017-06-14T08:18:39.596Z,39.4
2017-06-14T08:19:40.288Z,39.3
2017-06-14T08:20:40.971Z,39.1
2017-06-14T08:21:41.712Z,39.1
2017-06-14T08:22:42.725Z,38.8
2017-06-14T08:23:43.670Z,38.8
2017-06-14T08:24:44.372Z,39.3
2017-06-14T08:25:45.065Z,39.0
2017-06-14T08:26:45.804Z,38.8
2017-06-14T08:27:46.513Z,38.8
2017-06-14T08:28:47.551Z,38.6
2017-06-14T08:29:48.256Z,39.2
2017-06-14T08:30:48.938Z,38.7
2017-06-14T08:31:49.641Z,38.8
2017-06-14T08:32:50.363Z,38.8
2017-06-14T08:33:51.351Z,39.2
2017-06-14T08:34:52.393Z,38.8
2017-06-14T08:35:53.085Z,38.6
2017-06-14T08:36:53.776Z,39.0
2017-06-14T08:37:54.476Z,38.3
2017-06-14T08:38:55.444Z,38.8
2017-06-14T08:39:56.118Z,38.3
2017-06-14T08:40:57.170Z,38.7
2017-06-14T08:41:57.912Z,38.9
2017-06-14T08:42:58.692Z,39.0
2017-06-14T08:43:59.439Z,39.3
2017-06-14T08:45:00.214Z,39.1
2017-06-14T08:46:01.010Z,39.3
2017-06-14T08:47:01.966Z,39.2
2017-06-14T08:48:02.763Z,39.1
2017-06-14T08:49:03.513Z,39.2
2017-06-14T08:50:04.212Z,39.1
2017-06-14T08:51:04.960Z,39.1
2017-06-14T08:52:05.979Z,39.1
2017-06-14T08:53:06.660Z,39.0
2017-06-14T08:54:07.362Z,39.2
2017-06-14T08:55:08.081Z,39.0
2017-06-14T08:56:08.860Z,39.1
2017-06-14T08:57:09.554Z,39.2
2017-06-14T08:59:26.075Z,39.1
2017-06-14T09:00:26.784Z,39.1
2017-06-14T09:01:27.608Z,39.0
2017-06-14T09:02:28.348Z,39.1
2017-06-14T09:03:29.032Z,39.0
2017-06-14T09:04:29.746Z,39.0
2017-06-14T09:05:30.829Z,38.9
2017-06-14T09:06:31.635Z,38.9
2017-06-14T09:07:32.327Z,39.2
2017-06-14T09:08:33.089Z,39.0
2017-06-14T09:09:33.774Z,38.7
2017-06-14T09:10:34.463Z,38.7
2017-06-14T09:11:35.692Z,38.7
2017-06-14T09:12:36.403Z,38.9
2017-06-14T09:13:37.150Z,39.1
2017-06-14T09:14:37.843Z,38.7
2017-06-14T09:15:38.565Z,38.7
2017-06-14T09:16:39.262Z,38.8
2017-06-14T09:17:40.243Z,38.9
2017-06-14T09:18:41.052Z,38.8
2017-06-14T09:19:41.761Z,38.8
2017-06-14T09:20:42.450Z,38.8
2017-06-14T09:21:43.151Z,38.8
2017-06-14T09:22:43.849Z,38.7
2017-06-14T09:23:44.820Z,38.8
2017-06-14T09:24:45.821Z,38.8
2017-06-14T09:25:46.524Z,38.6
2017-06-14T09:26:47.258Z,38.4
2017-06-14T09:27:47.971Z,38.8
2017-06-14T09:28:48.818Z,38.5
2017-06-14T09:29:49.904Z,39.0
2017-06-14T09:30:50.620Z,39.0
2017-06-14T09:31:51.399Z,38.6
2017-06-14T09:32:52.057Z,38.6
2017-06-14T09:33:52.882Z,38.9
2017-06-14T09:34:53.568Z,38.9
2017-06-14T09:35:54.748Z,39.0
2017-06-14T09:36:55.427Z,38.4
2017-06-14T09:37:56.132Z,38.5
2017-06-14T09:38:56.930Z,38.7
2017-06-14T09:39:57.638Z,38.3
2017-06-14T09:40:58.637Z,38.5
2017-06-14T09:41:59.330Z,38.6
2017-06-14T09:43:00.069Z,38.3
2017-06-14T09:44:00.779Z,38.4
2017-06-14T09:45:01.497Z,38.3
2017-06-14T09:46:02.276Z,38.1
2017-06-14T09:47:03.243Z,38.2
2017-06-14T09:48:03.959Z,38.5
2017-06-14T09:49:04.703Z,38.1
2017-06-14T09:50:05.407Z,38.6
2017-06-14T09:51:06.349Z,38.1
2017-06-14T09:52:07.049Z,38.0
2017-06-14T09:53:08.285Z,38.4
2017-06-14T09:54:08.982Z,38.2
2017-06-14T09:55:09.739Z,38.0
2017-06-14T09:56:10.553Z,38.3
2017-06-14T09:57:11.314Z,37.9
2017-06-14T09:58:12.078Z,38.0
2017-06-14T09:59:13.051Z,38.3
2017-06-14T10:00:13.755Z,38.2
2017-06-14T10:01:14.614Z,38.1
2017-06-14T10:02:15.305Z,38.1
2017-06-14T10:03:15.999Z,38.3
2017-06-14T10:04:16.690Z,38.2
2017-06-14T10:05:17.696Z,38.2
2017-06-14T10:06:18.553Z,38.2
2017-06-14T10:07:19.270Z,38.4
2017-06-14T10:08:19.979Z,37.8
2017-06-14T10:09:20.958Z,37.9
2017-06-14T10:10:23.963Z,37.9
2017-06-14T10:11:24.995Z,37.9
2017-06-14T10:12:25.826Z,37.8
2017-06-14T10:13:26.522Z,37.9
2017-06-14T10:14:27.251Z,37.9
2017-06-14T10:15:28.045Z,38.1
2017-06-14T10:16:28.734Z,37.8
2017-06-14T10:17:29.872Z,37.7
2017-06-14T10:18:30.632Z,38.0
2017-06-14T10:19:31.329Z,38.0
2017-06-14T10:20:32.115Z,38.0
2017-06-14T10:21:32.982Z,38.1
2017-06-14T10:22:33.732Z,38.0
2017-06-14T10:23:34.721Z,38.0
2017-06-14T10:24:35.415Z,37.8
2017-06-14T10:25:36.138Z,37.9
2017-06-14T10:26:36.882Z,38.0
2017-06-14T10:27:37.578Z,37.9
2017-06-14T10:28:38.327Z,38.0
2017-06-14T10:29:39.351Z,37.8
2017-06-14T10:30:40.009Z,38.0
2017-06-14T10:31:40.897Z,37.8
2017-06-14T10:32:41.658Z,38.0
2017-06-14T10:33:42.347Z,38.0
2017-06-14T10:34:43.099Z,38.0
2017-06-14T10:35:43.787Z,38.0
2017-06-14T10:36:44.690Z,37.9
2017-06-14T10:37:45.409Z,37.8
2017-06-14T10:38:46.111Z,38.2
2017-06-14T10:39:46.872Z,38.0
2017-06-14T10:40:47.951Z,38.0
2017-06-14T10:41:48.722Z,37.8
2017-06-14T10:42:49.417Z,38.0
2017-06-14T10:43:50.183Z,37.8
2017-06-14T10:44:50.882Z,38.0
2017-06-14T10:45:51.579Z,37.8
2017-06-14T10:46:52.863Z,37.7
2017-06-14T10:47:53.696Z,38.1
2017-06-14T10:48:54.416Z,37.9
2017-06-14T10:49:55.157Z,37.8
2017-06-14T10:50:55.853Z,38.1
2017-06-14T10:51:56.737Z,38.0
2017-06-14T10:52:57.743Z,37.8
2017-06-14T10:53:58.517Z,37.8
2017-06-14T10:54:59.258Z,37.9
2017-06-14T10:55:59.985Z,37.9
2017-06-14T10:57:00.915Z,38.1
2017-06-14T10:58:01.607Z,38.4
2017-06-14T10:59:02.605Z,38.2
2017-06-14T11:00:03.417Z,38.0
2017-06-14T11:01:04.106Z,37.8
2017-06-14T11:02:04.890Z,38.3
2017-06-14T11:03:05.608Z,37.9
2017-06-14T11:04:06.664Z,38.0
2017-06-14T11:05:07.359Z,37.9
2017-06-14T11:06:08.371Z,37.9
2017-06-14T11:07:10.001Z,37.4
2017-06-14T11:08:11.281Z,37.6
2017-06-14T11:09:11.999Z,37.5
2017-06-14T11:10:13.053Z,37.6
2017-06-14T11:11:14.285Z,37.7
2017-06-14T11:12:15.325Z,37.7
2017-06-14T11:13:16.110Z,37.8
2017-06-14T11:14:16.927Z,37.7
2017-06-14T11:15:17.786Z,37.2
2017-06-14T11:16:18.977Z,37.8
2017-06-14T11:17:20.734Z,37.8
2017-06-14T11:18:21.519Z,37.3
2017-06-14T11:19:22.331Z,37.4
2017-06-14T11:20:23.093Z,37.2
2017-06-14T11:21:23.894Z,36.9
2017-06-14T11:22:25.153Z,37.4
2017-06-14T11:23:25.845Z,37.8
2017-06-14T11:24:26.721Z,37.6
2017-06-14T11:25:27.627Z,37.7
2017-06-14T11:26:28.591Z,37.4
2017-06-14T11:27:29.306Z,36.9
2017-06-14T11:28:30.340Z,36.7
2017-06-14T11:29:31.121Z,37.1
2017-06-14T11:30:31.920Z,37.0
2017-06-14T11:31:32.647Z,37.2
2017-06-14T11:32:33.379Z,37.3
2017-06-14T11:33:34.072Z,37.2
2017-06-14T11:34:35.175Z,37.2
2017-06-14T11:35:35.948Z,37.5
2017-06-14T11:36:36.643Z,37.5
2017-06-14T11:37:37.370Z,37.5
2017-06-14T11:38:38.105Z,37.2
2017-06-14T11:39:39.228Z,37.5
2017-06-14T11:40:40.046Z,37.2
2017-06-14T11:41:40.803Z,37.1
2017-06-14T11:42:41.510Z,36.9
2017-06-14T11:43:42.235Z,37.4
2017-06-14T11:44:42.913Z,37.5
2017-06-14T11:45:44.071Z,37.3
2017-06-14T11:46:45.041Z,37.5
2017-06-14T11:47:45.772Z,37.1
2017-06-14T11:48:46.507Z,37.0
2017-06-14T11:49:47.215Z,37.2
2017-06-14T11:50:47.923Z,37.4
2017-06-14T11:51:49.062Z,37.0
2017-06-14T11:52:49.740Z,37.0
2017-06-14T11:53:50.540Z,37.0
2017-06-14T11:54:51.263Z,37.3
2017-06-14T11:55:52.197Z,37.1
2017-06-14T11:56:53.880Z,36.9
2017-06-14T11:57:54.922Z,37.2
2017-06-14T12:00:11.839Z,37.0
2017-06-14T12:01:13.617Z,37.0
2017-06-14T12:02:15.164Z,37.0
2017-06-14T12:03:16.409Z,36.8
2017-06-14T12:04:17.851Z,37.0
2017-06-14T12:05:19.089Z,36.7
2017-06-14T12:07:35.898Z,35.7
2017-06-14T12:08:36.867Z,36.2
2017-06-14T12:09:37.711Z,36.0
2017-06-14T12:10:38.428Z,36.5
2017-06-14T12:11:39.231Z,35.8
2017-06-14T12:12:40.200Z,36.2
2017-06-14T12:13:41.534Z,35.9
2017-06-14T12:14:42.837Z,35.8
2017-06-14T12:15:44.674Z,35.9
2017-06-14T12:16:46.169Z,35.9
2017-06-14T12:17:47.303Z,35.8
2017-06-14T12:18:48.311Z,36.1
2017-06-14T12:19:52.717Z,36.0
2017-06-14T12:20:55.533Z,35.9
2017-06-14T12:21:57.211Z,36.0
2017-06-14T12:22:59.152Z,36.2
2017-06-14T12:23:59.924Z,36.2
2017-06-14T12:25:00.638Z,36.2
2017-06-14T12:26:01.524Z,36.2
2017-06-14T12:27:03.116Z,36.1
2017-06-14T12:28:03.976Z,36.0
2017-06-14T12:29:04.699Z,36.0
2017-06-14T12:30:05.372Z,35.9
2017-06-14T12:31:06.604Z,36.0
2017-06-14T12:32:08.233Z,36.1
2017-06-14T12:33:08.957Z,35.9
2017-06-14T12:34:09.711Z,35.8
2017-06-14T12:35:10.445Z,36.0
2017-06-14T12:36:11.187Z,36.1
2017-06-14T12:37:11.967Z,36.3
2017-06-14T12:38:12.994Z,36.0
2017-06-14T12:39:13.813Z,36.3
2017-06-14T12:40:14.667Z,36.3
2017-06-14T12:41:16.192Z,35.9
2017-06-14T12:42:17.727Z,35.8
2017-06-14T12:43:19.906Z,35.9
2017-06-14T12:44:20.675Z,35.9
2017-06-14T12:45:21.492Z,35.9
2017-06-14T12:46:22.230Z,36.0
2017-06-14T12:47:23.125Z,35.9
2017-06-14T12:48:23.831Z,36.0
2017-06-14T12:49:25.161Z,36.1
2017-06-14T12:50:25.865Z,35.8
2017-06-14T12:51:26.612Z,35.6
2017-06-14T12:52:27.430Z,35.6
2017-06-14T12:53:28.163Z,35.4
2017-06-14T12:54:29.185Z,35.4
2017-06-14T12:55:29.862Z,35.6
2017-06-14T12:56:30.558Z,35.3
2017-06-14T12:57:31.472Z,35.3
2017-06-14T12:58:32.154Z,35.5
2017-06-14T12:59:32.874Z,35.5
2017-06-14T13:00:33.979Z,35.6
2017-06-14T13:01:34.686Z,35.4
2017-06-14T13:02:35.620Z,35.4
2017-06-14T13:03:36.376Z,35.3
2017-06-14T13:04:37.224Z,35.3
2017-06-14T13:05:38.194Z,35.2
2017-06-14T13:06:38.956Z,35.3
2017-06-14T13:07:39.703Z,35.1
2017-06-14T13:08:40.401Z,34.9
2017-06-14T13:09:41.106Z,34.6
2017-06-14T13:10:41.861Z,34.7
2017-06-14T13:11:42.870Z,34.2
2017-06-14T13:12:43.769Z,34.3
2017-06-14T13:13:44.481Z,34.1
2017-06-14T13:14:45.161Z,33.9
2017-06-14T13:15:45.858Z,33.9
2017-06-14T13:16:46.573Z,33.5
2017-06-14T13:17:47.713Z,33.7
2017-06-14T13:18:48.468Z,33.6
2017-06-14T13:19:49.215Z,33.4
2017-06-14T13:20:49.930Z,33.7
2017-06-14T13:21:50.619Z,33.2
2017-06-14T13:22:51.938Z,33.2
2017-06-14T13:23:52.682Z,33.4
2017-06-14T13:24:53.386Z,33.7
2017-06-14T13:25:54.121Z,33.2
2017-06-14T13:26:54.808Z,33.1
2017-06-14T13:27:55.702Z,32.8
2017-06-14T13:28:56.695Z,32.5
2017-06-14T13:29:57.419Z,32.7
2017-06-14T13:30:58.091Z,32.4
2017-06-14T13:31:58.853Z,32.6
2017-06-14T13:32:59.550Z,32.8
2017-06-14T13:34:00.308Z,33.1
2017-06-14T13:35:01.010Z,32.6
2017-06-14T13:36:01.820Z,32.8